Terminal Aerodrome Forecast
Issued by NWS

Home | Current Version | Previous Version | Text Only | Print | Product List | Glossary On
Versions: 1 2 3 4 5 6 7 8 9 10 11 12
000
FTUS45 KREV 252331
TAFTVL
TAF
KTVL 252331Z 2600/2624 VRB03KT P6SM SCT180
     FM261700 06006KT P6SM FEW090 SCT180=

USA.gov is the U.S. government's official web portal to all federal, state and local government web resources and services.